Time;durP1;ratioP1;P1;durP2;ratioP2;P2;SDS_P1;SDS_P2;PMS_P1;PMS_P2;Temp;Humidity;BMP_temperature;BMP_pressure;BME280_temperature;BME280_humidity;BME280_pressure;Samples;Min_cycle;Max_cycle;Signal;HPM_P1;HPM_P2
2024/03/20 00:00:17;;;;;;;11.13;5.28;;;9.50;81.60;;;;;;5035187;28;20213;-65
2024/03/20 00:02:43;;;;;;;10.98;5.07;;;9.50;81.30;;;;;;5029828;28;20037;-65
2024/03/20 00:05:08;;;;;;;12.50;5.10;;;9.50;81.50;;;;;;5034549;28;20038;-65
2024/03/20 00:07:34;;;;;;;8.52;4.85;;;9.60;81.40;;;;;;5035640;28;20021;-65
2024/03/20 00:09:59;;;;;;;7.70;4.22;;;9.50;81.60;;;;;;5023520;28;20091;-66
2024/03/20 00:12:26;;;;;;;9.02;4.97;;;9.50;81.70;;;;;;5028651;28;20038;-65
2024/03/20 00:14:52;;;;;;;10.18;5.22;;;9.50;81.70;;;;;;5035336;28;20041;-65
2024/03/20 00:17:18;;;;;;;9.38;4.95;;;9.50;81.70;;;;;;5031974;28;20049;-65
2024/03/20 00:19:43;;;;;;;9.18;4.88;;;9.50;81.60;;;;;;5034221;28;20061;-65
2024/03/20 00:22:09;;;;;;;9.45;5.45;;;9.50;81.80;;;;;;5032148;28;20430;-66
2024/03/20 00:24:34;;;;;;;9.77;4.75;;;9.50;81.70;;;;;;5033695;28;20709;-65
2024/03/20 00:27:00;;;;;;;8.02;4.50;;;9.50;81.70;;;;;;5034079;28;20108;-65
2024/03/20 00:29:27;;;;;;;9.43;5.32;;;9.50;81.90;;;;;;5026709;28;20076;-65
2024/03/20 00:31:54;;;;;;;11.05;5.28;;;9.50;81.70;;;;;;5027372;28;20037;-65
2024/03/20 00:34:20;;;;;;;10.63;5.68;;;9.50;81.90;;;;;;5034486;28;20128;-65
2024/03/20 00:36:46;;;;;;;9.45;4.90;;;9.50;81.90;;;;;;5031582;28;20108;-65
2024/03/20 00:39:11;;;;;;;9.57;5.38;;;9.40;82.10;;;;;;5027610;28;20032;-66
2024/03/20 00:41:37;;;;;;;11.05;5.07;;;9.40;82.10;;;;;;5024253;28;20191;-65
2024/03/20 00:44:02;;;;;;;9.65;5.22;;;9.40;82.20;;;;;;5024910;28;20170;-65
2024/03/20 00:46:29;;;;;;;10.38;5.25;;;9.50;82.30;;;;;;5037720;28;20056;-65
2024/03/20 00:48:54;;;;;;;12.15;4.95;;;9.50;82.40;;;;;;5026715;28;20346;-65
2024/03/20 00:51:20;;;;;;;11.13;5.30;;;9.40;82.40;;;;;;5027543;28;20037;-65
2024/03/20 00:53:45;;;;;;;10.45;4.80;;;9.40;82.30;;;;;;5028799;28;20028;-65
2024/03/20 00:56:11;;;;;;;10.63;5.53;;;9.40;82.50;;;;;;5034367;28;20105;-66
2024/03/20 00:58:36;;;;;;;9.60;5.18;;;9.40;82.40;;;;;;5036571;28;20028;-65
2024/03/20 01:01:02;;;;;;;8.52;5.18;;;9.40;82.80;;;;;;5040986;28;20136;-65
2024/03/20 01:03:27;;;;;;;9.60;4.95;;;9.30;82.60;;;;;;5036332;28;20045;-66
2024/03/20 01:05:54;;;;;;;11.13;4.93;;;9.30;82.80;;;;;;5035599;28;20091;-65
2024/03/20 01:08:21;;;;;;;9.45;4.82;;;9.30;82.90;;;;;;5031408;28;20033;-65
2024/03/20 01:10:47;;;;;;;9.10;4.95;;;9.30;83.00;;;;;;5030910;28;20068;-65
2024/03/20 01:13:12;;;;;;;7.95;5.03;;;9.30;83.30;;;;;;5034921;28;20037;-65
2024/03/20 01:15:38;;;;;;;8.68;5.10;;;9.30;83.40;;;;;;5029509;28;20037;-65
2024/03/20 01:18:04;;;;;;;10.95;5.15;;;9.30;83.80;;;;;;5032959;28;20064;-65
2024/03/20 01:20:30;;;;;;;11.90;5.13;;;9.30;83.90;;;;;;5029718;28;20687;-65
2024/03/20 01:22:57;;;;;;;10.15;4.93;;;9.30;84.40;;;;;;5041110;28;20037;-66
2024/03/20 01:25:22;;;;;;;12.32;5.22;;;9.30;84.10;;;;;;5027799;28;20500;-65
2024/03/20 01:27:48;;;;;;;10.52;5.32;;;9.30;83.90;;;;;;5033961;28;20041;-65
2024/03/20 01:30:14;;;;;;;9.57;4.72;;;9.30;83.90;;;;;;5034686;28;20033;-65
2024/03/20 01:32:40;;;;;;;9.73;5.45;;;9.30;84.30;;;;;;5032549;28;20076;-66
2024/03/20 01:35:05;;;;;;;10.43;4.80;;;9.30;84.60;;;;;;5035542;28;20033;-65
2024/03/20 01:37:31;;;;;;;10.85;5.10;;;9.20;85.00;;;;;;5031829;28;20064;-66
2024/03/20 01:39:56;;;;;;;9.57;5.25;;;9.20;85.30;;;;;;5027123;28;21033;-65
2024/03/20 01:42:22;;;;;;;9.57;4.85;;;9.10;85.90;;;;;;5027343;28;20089;-65
2024/03/20 01:44:47;;;;;;;9.07;4.97;;;9.10;85.80;;;;;;5034016;28;20459;-65
2024/03/20 01:47:13;;;;;;;10.55;5.30;;;9.00;86.10;;;;;;5031651;28;20176;-64
2024/03/20 01:49:39;;;;;;;10.30;4.95;;;9.00;86.30;;;;;;5029521;28;20033;-65
2024/03/20 01:52:06;;;;;;;10.15;5.25;;;9.00;86.40;;;;;;5044627;28;20334;-64
2024/03/20 01:54:33;;;;;;;11.55;6.03;;;9.00;86.60;;;;;;5039837;28;20383;-64
2024/03/20 01:56:58;;;;;;;11.35;5.13;;;9.00;86.60;;;;;;5026368;28;20069;-64
2024/03/20 01:59:24;;;;;;;12.52;5.90;;;9.00;86.70;;;;;;5034964;28;20124;-64
2024/03/20 02:01:49;;;;;;;13.85;6.28;;;9.00;86.70;;;;;;5038526;28;20488;-64
2024/03/20 02:04:15;;;;;;;14.20;6.13;;;9.00;86.70;;;;;;5036645;28;20539;-64
2024/03/20 02:06:40;;;;;;;11.93;6.10;;;9.00;86.60;;;;;;5030245;28;20033;-64
2024/03/20 02:09:07;;;;;;;9.85;5.22;;;9.00;86.70;;;;;;5032540;28;20113;-64
2024/03/20 02:11:33;;;;;;;12.23;6.05;;;9.00;86.70;;;;;;5037328;28;20049;-64
2024/03/20 02:13:58;;;;;;;12.27;6.07;;;9.10;86.60;;;;;;5032749;28;20041;-64
2024/03/20 02:16:25;;;;;;;11.52;5.43;;;9.10;86.70;;;;;;5030881;28;20117;-64
2024/03/20 02:18:52;;;;;;;11.00;5.57;;;9.10;86.80;;;;;;5029085;28;20033;-64
2024/03/20 02:21:22;;;;;;;11.90;6.20;;;9.10;86.70;;;;;;5032357;28;20033;-65
2024/03/20 02:23:49;;;;;;;13.25;5.90;;;9.20;86.80;;;;;;5035571;28;20037;-65
2024/03/20 02:26:15;;;;;;;12.35;6.25;;;9.20;86.70;;;;;;5029088;28;20033;-64
2024/03/20 02:28:43;;;;;;;10.93;5.40;;;9.30;86.70;;;;;;5034251;28;20056;-64
2024/03/20 02:31:09;;;;;;;10.50;5.30;;;9.20;86.60;;;;;;5031853;28;20141;-64
2024/03/20 02:33:36;;;;;;;12.60;6.00;;;9.20;86.70;;;;;;5036658;28;20036;-64
2024/03/20 02:36:03;;;;;;;9.20;5.40;;;9.20;86.60;;;;;;5029682;28;20052;-65
2024/03/20 02:38:39;;;;;;;11.82;5.93;;;9.30;86.70;;;;;;5030922;28;20033;-65
2024/03/20 02:41:06;;;;;;;10.77;5.80;;;9.30;86.60;;;;;;5027245;28;20223;-64
2024/03/20 02:43:32;;;;;;;10.52;5.50;;;9.30;86.60;;;;;;5030748;28;20052;-64
2024/03/20 02:45:58;;;;;;;12.18;6.07;;;9.30;86.70;;;;;;5040231;28;20044;-64
2024/03/20 02:48:23;;;;;;;10.95;6.28;;;9.20;86.60;;;;;;5033190;28;20172;-64
2024/03/20 02:50:49;;;;;;;11.43;5.65;;;9.10;86.80;;;;;;5030900;28;20477;-64
2024/03/20 02:53:14;;;;;;;12.00;5.72;;;9.10;87.00;;;;;;5037080;28;20037;-64
2024/03/20 02:55:42;;;;;;;11.38;5.93;;;9.00;87.30;;;;;;5029314;28;20626;-65
2024/03/20 02:58:09;;;;;;;13.73;6.85;;;9.00;87.30;;;;;;5036409;28;20033;-64
2024/03/20 03:00:34;;;;;;;11.07;5.70;;;8.90;87.60;;;;;;5030993;28;20022;-64
2024/03/20 03:03:00;;;;;;;9.55;5.68;;;8.80;87.50;;;;;;5033319;28;20060;-64
2024/03/20 03:05:27;;;;;;;11.18;6.22;;;8.70;87.90;;;;;;5032487;28;20124;-64
2024/03/20 03:07:53;;;;;;;11.80;5.82;;;8.60;88.00;;;;;;5040980;28;20258;-64
2024/03/20 03:10:19;;;;;;;11.07;5.38;;;8.60;88.20;;;;;;5034750;28;20545;-64
2024/03/20 03:12:48;;;;;;;10.98;5.30;;;8.60;88.40;;;;;;5032345;28;20383;-64
2024/03/20 03:15:14;;;;;;;8.98;5.13;;;8.60;88.70;;;;;;5032626;28;20103;-64
2024/03/20 03:17:41;;;;;;;12.00;5.60;;;8.50;88.90;;;;;;5037315;28;20107;-64
2024/03/20 03:20:17;;;;;;;12.35;5.13;;;8.40;89.10;;;;;;5034158;28;20049;-65
2024/03/20 03:22:44;;;;;;;11.30;5.78;;;8.50;89.40;;;;;;5031124;28;20438;-65
2024/03/20 03:25:10;;;;;;;11.48;5.82;;;8.40;89.70;;;;;;5031752;28;20037;-64
2024/03/20 03:27:37;;;;;;;10.65;5.68;;;8.30;89.60;;;;;;5038952;28;20433;-64
2024/03/20 03:30:04;;;;;;;10.38;5.20;;;8.30;89.90;;;;;;5031187;28;20139;-64
2024/03/20 03:32:30;;;;;;;10.77;5.75;;;8.20;89.90;;;;;;5032638;28;20029;-64
2024/03/20 03:34:55;;;;;;;12.93;6.70;;;8.10;89.80;;;;;;5034793;28;20262;-64
2024/03/20 03:37:21;;;;;;;9.30;5.22;;;8.10;90.10;;;;;;5039127;28;20412;-64
2024/03/20 03:39:46;;;;;;;14.15;6.20;;;8.20;90.50;;;;;;5033044;28;20076;-65
2024/03/20 03:42:14;;;;;;;13.98;6.43;;;8.10;90.20;;;;;;5028138;28;20079;-64
2024/03/20 03:44:41;;;;;;;10.77;6.18;;;7.90;90.40;;;;;;5035920;28;20103;-64
2024/03/20 03:47:06;;;;;;;11.70;6.47;;;7.80;90.80;;;;;;5027669;28;20033;-64
2024/03/20 03:49:32;;;;;;;10.93;5.85;;;7.80;91.00;;;;;;5039695;28;20124;-64
2024/03/20 03:51:58;;;;;;;10.93;5.22;;;7.70;91.40;;;;;;5030972;28;20104;-64
2024/03/20 03:54:23;;;;;;;15.63;6.18;;;7.80;91.90;;;;;;5035963;28;20041;-64
2024/03/20 03:56:49;;;;;;;12.43;5.93;;;7.70;91.80;;;;;;5027230;28;20483;-64
2024/03/20 03:59:14;;;;;;;11.38;5.68;;;7.60;91.70;;;;;;5043221;28;20052;-64
2024/03/20 04:01:40;;;;;;;11.65;6.35;;;7.60;92.20;;;;;;5039692;28;20047;-64
2024/03/20 04:04:05;;;;;;;11.02;5.22;;;7.60;92.40;;;;;;5034711;28;20409;-64
2024/03/20 04:06:31;;;;;;;15.55;6.13;;;7.50;92.00;;;;;;5027720;28;20029;-64
2024/03/20 04:08:56;;;;;;;13.93;6.50;;;7.50;92.10;;;;;;5032450;28;20777;-64
2024/03/20 04:11:23;;;;;;;12.57;6.15;;;7.50;92.10;;;;;;5029677;28;20040;-64
2024/03/20 04:13:49;;;;;;;11.63;5.75;;;7.50;92.20;;;;;;5033453;28;20024;-64
2024/03/20 04:16:15;;;;;;;12.70;6.40;;;7.50;92.20;;;;;;5028576;28;20154;-64
2024/03/20 04:18:41;;;;;;;11.70;6.00;;;7.60;92.80;;;;;;5036591;28;20033;-64
2024/03/20 04:21:06;;;;;;;11.30;6.18;;;7.60;92.70;;;;;;5034171;28;20088;-64
2024/03/20 04:23:32;;;;;;;11.23;5.95;;;7.60;92.60;;;;;;5033562;28;20461;-64
2024/03/20 04:25:57;;;;;;;12.45;6.32;;;7.60;92.20;;;;;;5031566;28;20152;-64
2024/03/20 04:28:23;;;;;;;12.65;5.55;;;7.60;92.10;;;;;;5033456;28;20052;-64
2024/03/20 04:30:48;;;;;;;13.43;5.95;;;7.60;92.20;;;;;;5031676;28;20033;-64
2024/03/20 04:33:14;;;;;;;13.57;6.35;;;7.70;92.20;;;;;;5040395;28;20446;-67
2024/03/20 04:35:39;;;;;;;13.13;6.45;;;7.60;92.50;;;;;;5033345;28;20430;-64
2024/03/20 04:38:05;;;;;;;9.90;5.38;;;7.60;92.60;;;;;;5038825;28;20025;-64
2024/03/20 04:40:30;;;;;;;10.07;5.45;;;7.60;92.70;;;;;;5030752;28;20121;-65
2024/03/20 04:42:56;;;;;;;11.18;6.53;;;7.60;92.30;;;;;;5040573;28;20114;-64
2024/03/20 04:45:21;;;;;;;11.20;5.68;;;7.60;92.40;;;;;;5048147;28;20037;-64
2024/03/20 04:47:47;;;;;;;11.73;6.10;;;7.60;92.50;;;;;;5042295;28;20072;-63
2024/03/20 04:50:13;;;;;;;12.20;6.03;;;7.60;92.40;;;;;;5031237;28;20079;-64
2024/03/20 04:52:38;;;;;;;11.60;5.60;;;7.70;92.20;;;;;;5038008;28;20100;-64
2024/03/20 04:55:07;;;;;;;11.38;5.45;;;7.60;92.20;;;;;;5028595;28;20442;-64
2024/03/20 04:57:33;;;;;;;13.93;7.05;;;7.70;92.40;;;;;;5042704;28;20040;-64
2024/03/20 04:59:59;;;;;;;10.40;5.47;;;7.70;92.50;;;;;;5045099;28;20092;-65
2024/03/20 05:02:25;;;;;;;10.73;5.18;;;7.80;92.50;;;;;;5039142;28;20140;-64
2024/03/20 05:04:50;;;;;;;10.52;5.85;;;7.80;92.40;;;;;;5032207;28;20037;-64
2024/03/20 05:07:16;;;;;;;8.80;4.75;;;7.80;92.40;;;;;;5034792;28;20040;-64
2024/03/20 05:09:42;;;;;;;12.70;5.85;;;7.90;92.40;;;;;;5029225;28;20063;-65
2024/03/20 05:12:07;;;;;;;14.18;6.78;;;8.00;92.50;;;;;;5031139;28;20485;-64
2024/03/20 05:14:33;;;;;;;12.15;6.40;;;8.00;92.50;;;;;;5031318;28;20362;-64
2024/03/20 05:17:00;;;;;;;9.73;5.28;;;8.00;92.50;;;;;;5036498;28;20112;-64
2024/03/20 05:19:29;;;;;;;10.75;5.63;;;8.10;92.30;;;;;;5034022;28;20481;-65
2024/03/20 05:21:54;;;;;;;11.63;6.10;;;8.10;92.00;;;;;;5048909;28;20033;-64
2024/03/20 05:24:20;;;;;;;13.80;6.60;;;8.10;91.80;;;;;;5030173;28;20544;-64
2024/03/20 05:26:45;;;;;;;12.05;6.55;;;8.20;91.60;;;;;;5038539;28;20052;-64
2024/03/20 05:29:11;;;;;;;18.05;6.47;;;8.20;91.50;;;;;;5032358;28;20109;-64
2024/03/20 05:31:38;;;;;;;10.50;6.00;;;8.20;91.30;;;;;;5034481;28;20029;-63
2024/03/20 05:34:04;;;;;;;11.57;6.05;;;8.20;91.30;;;;;;5030806;28;20509;-65
2024/03/20 05:36:29;;;;;;;13.75;6.80;;;8.30;91.30;;;;;;5031740;28;20085;-64
2024/03/20 05:38:55;;;;;;;11.75;6.03;;;8.30;91.40;;;;;;5037159;28;20029;-63
2024/03/20 05:41:20;;;;;;;12.73;6.32;;;8.30;91.40;;;;;;5032232;28;20051;-63
2024/03/20 05:43:46;;;;;;;11.60;6.00;;;8.30;91.50;;;;;;5034794;28;20113;-65
2024/03/20 05:46:13;;;;;;;11.95;6.88;;;8.30;91.50;;;;;;5033365;28;20021;-63
2024/03/20 05:48:39;;;;;;;12.70;6.65;;;8.30;91.50;;;;;;5028772;28;20180;-62
2024/03/20 05:51:06;;;;;;;14.18;6.57;;;8.40;91.20;;;;;;5028038;28;20077;-63
2024/03/20 05:53:32;;;;;;;13.13;6.90;;;8.40;91.20;;;;;;5037706;28;20025;-63
2024/03/20 05:55:58;;;;;;;14.60;7.00;;;8.40;91.20;;;;;;5028770;28;20055;-63
2024/03/20 05:58:24;;;;;;;12.65;7.13;;;8.40;91.00;;;;;;5046329;28;20063;-63
2024/03/20 06:00:49;;;;;;;13.45;6.40;;;8.50;90.80;;;;;;5038084;28;20021;-63
2024/03/20 06:03:15;;;;;;;12.15;5.90;;;8.60;90.40;;;;;;5031415;28;20690;-63
2024/03/20 06:05:40;;;;;;;13.15;6.43;;;8.70;90.20;;;;;;5031259;28;20041;-64
2024/03/20 06:08:06;;;;;;;13.13;6.35;;;8.70;89.90;;;;;;5031903;28;20104;-65
2024/03/20 06:10:32;;;;;;;12.75;6.63;;;8.80;89.80;;;;;;5028669;28;20124;-63
2024/03/20 06:12:58;;;;;;;11.88;5.72;;;8.80;89.50;;;;;;5026957;28;20037;-63
2024/03/20 06:15:23;;;;;;;11.80;5.93;;;8.90;89.50;;;;;;5032855;28;20061;-63
2024/03/20 06:17:49;;;;;;;11.15;5.45;;;8.90;89.00;;;;;;5045294;28;20042;-64
2024/03/20 06:20:15;;;;;;;10.57;5.65;;;9.00;88.80;;;;;;5027151;28;20109;-63
2024/03/20 06:22:41;;;;;;;11.65;6.25;;;9.00;88.30;;;;;;5036182;28;20124;-64
2024/03/20 06:25:06;;;;;;;11.48;6.03;;;9.10;88.30;;;;;;5025036;28;20132;-63
2024/03/20 06:27:33;;;;;;;11.05;6.43;;;9.10;88.20;;;;;;5032798;28;20110;-64
2024/03/20 06:29:59;;;;;;;11.88;5.80;;;9.10;88.40;;;;;;5032606;28;20044;-64
2024/03/20 06:32:25;;;;;;;13.65;6.28;;;9.10;88.30;;;;;;5032114;28;20109;-64
2024/03/20 06:34:51;;;;;;;10.75;5.65;;;9.10;88.40;;;;;;5030535;28;20033;-64
2024/03/20 06:37:17;;;;;;;12.52;5.70;;;9.10;88.70;;;;;;5036428;28;20064;-63
2024/03/20 06:39:43;;;;;;;11.70;6.10;;;9.20;88.90;;;;;;5030511;28;20216;-64
2024/03/20 06:42:20;;;;;;;12.32;6.10;;;9.10;88.60;;;;;;5040626;28;20518;-63
2024/03/20 06:44:49;;;;;;;11.85;6.18;;;9.10;88.40;;;;;;5028789;28;20326;-64
2024/03/20 06:47:16;;;;;;;12.10;5.95;;;9.10;88.40;;;;;;5032354;28;20358;-64
2024/03/20 06:49:43;;;;;;;11.20;5.80;;;9.10;88.50;;;;;;5034625;28;20060;-64
2024/03/20 06:52:08;;;;;;;9.85;6.15;;;9.10;88.60;;;;;;5031836;28;20351;-63
2024/03/20 06:54:34;;;;;;;12.07;6.05;;;9.00;89.00;;;;;;5033925;28;20036;-64
2024/03/20 06:57:03;;;;;;;11.15;6.15;;;9.10;88.70;;;;;;5031611;28;20514;-64
2024/03/20 06:59:29;;;;;;;11.85;6.07;;;9.10;88.70;;;;;;5034630;28;20025;-63
2024/03/20 07:01:58;;;;;;;10.52;5.50;;;9.20;88.50;;;;;;5041395;28;20033;-64
2024/03/20 07:04:25;;;;;;;12.27;6.28;;;9.30;88.50;;;;;;5032747;28;20048;-64
2024/03/20 07:06:51;;;;;;;13.75;5.93;;;9.30;88.20;;;;;;5038352;28;20478;-64
2024/03/20 07:09:17;;;;;;;12.90;6.75;;;9.30;87.80;;;;;;5026119;28;20065;-64
2024/03/20 07:11:42;;;;;;;10.75;5.18;;;9.30;88.10;;;;;;5045903;28;20074;-64
2024/03/20 07:14:08;;;;;;;14.27;5.80;;;9.40;87.70;;;;;;5031391;28;20022;-64
2024/03/20 07:16:34;;;;;;;11.65;6.00;;;9.50;87.80;;;;;;5040719;28;20098;-64
2024/03/20 07:18:59;;;;;;;11.38;5.78;;;9.50;87.50;;;;;;5036907;28;20075;-64
2024/03/20 07:21:25;;;;;;;9.25;5.15;;;9.50;87.60;;;;;;5034001;28;20143;-64
2024/03/20 07:23:51;;;;;;;11.07;5.82;;;9.60;87.50;;;;;;5030178;28;20049;-65
2024/03/20 07:26:17;;;;;;;12.93;5.95;;;9.60;87.40;;;;;;5026428;28;20037;-65
2024/03/20 07:28:42;;;;;;;11.77;5.72;;;9.50;87.30;;;;;;5032668;28;20133;-64
2024/03/20 07:31:08;;;;;;;12.02;6.10;;;9.60;87.10;;;;;;5033109;28;20488;-64
2024/03/20 07:33:33;;;;;;;13.40;6.47;;;9.60;87.30;;;;;;5027454;28;20051;-64
2024/03/20 07:35:59;;;;;;;10.68;6.10;;;9.60;87.40;;;;;;5032294;28;20095;-64
2024/03/20 07:38:24;;;;;;;11.02;6.05;;;9.60;87.50;;;;;;5028176;28;20121;-64
2024/03/20 07:40:53;;;;;;;10.45;5.95;;;9.60;87.50;;;;;;5031337;28;20060;-64
2024/03/20 07:43:19;;;;;;;14.73;6.90;;;9.60;87.50;;;;;;5031874;28;20060;-64
2024/03/20 07:45:45;;;;;;;12.80;6.50;;;9.60;87.40;;;;;;5028160;28;20029;-64
2024/03/20 07:48:11;;;;;;;10.90;5.50;;;9.60;87.40;;;;;;5030684;28;20478;-64
2024/03/20 07:50:37;;;;;;;11.60;5.72;;;9.60;87.60;;;;;;5028202;28;20441;-65
2024/03/20 07:53:04;;;;;;;10.23;5.72;;;9.70;87.40;;;;;;5032477;28;20086;-65
2024/03/20 07:55:30;;;;;;;12.02;6.28;;;9.70;87.60;;;;;;5027665;28;20219;-64
2024/03/20 07:57:56;;;;;;;11.43;6.25;;;9.70;87.40;;;;;;5029015;28;20227;-64
2024/03/20 08:00:28;;;;;;;12.25;6.13;;;9.70;87.30;;;;;;5037294;28;20034;-64
2024/03/20 08:02:57;;;;;;;11.38;5.47;;;9.80;87.20;;;;;;5028252;28;20450;-64
2024/03/20 08:05:26;;;;;;;10.30;5.75;;;9.80;86.90;;;;;;5030737;28;20048;-63
2024/03/20 08:07:52;;;;;;;12.77;6.38;;;9.80;87.30;;;;;;5032498;28;20037;-65
2024/03/20 08:10:18;;;;;;;9.70;5.57;;;9.80;86.90;;;;;;5029613;28;20735;-64
2024/03/20 08:12:44;;;;;;;12.38;6.35;;;9.90;87.20;;;;;;5032109;28;20068;-64
2024/03/20 08:15:09;;;;;;;14.23;5.97;;;10.00;86.80;;;;;;5033094;28;20040;-64
2024/03/20 08:17:39;;;;;;;11.73;6.10;;;10.00;86.50;;;;;;5050087;28;20418;-64
2024/03/20 08:20:09;;;;;;;10.43;6.15;;;10.20;86.70;;;;;;5028872;28;20036;-64
2024/03/20 08:22:35;;;;;;;11.25;6.05;;;10.30;86.50;;;;;;5031117;28;20322;-64
2024/03/20 08:25:00;;;;;;;13.50;6.55;;;10.40;86.00;;;;;;5035309;28;20052;-64
2024/03/20 08:27:26;;;;;;;12.10;6.03;;;10.50;86.00;;;;;;5033640;28;20029;-64
2024/03/20 08:29:54;;;;;;;11.00;5.97;;;10.50;85.70;;;;;;5027661;28;20394;-64
2024/03/20 08:32:20;;;;;;;12.40;6.20;;;10.60;85.70;;;;;;5031752;28;20036;-64
2024/03/20 08:34:46;;;;;;;12.48;5.95;;;10.80;85.90;;;;;;5031474;28;20407;-64
2024/03/20 08:37:11;;;;;;;11.55;6.03;;;11.00;85.30;;;;;;5038268;28;20048;-67
2024/03/20 08:39:37;;;;;;;12.80;6.40;;;10.90;85.20;;;;;;5028661;28;20041;-64
2024/03/20 08:42:03;;;;;;;15.40;7.18;;;11.00;84.90;;;;;;5032036;28;20058;-64
2024/03/20 08:44:28;;;;;;;11.88;6.63;;;11.00;84.60;;;;;;5030213;28;20035;-65
2024/03/20 08:46:54;;;;;;;14.45;7.30;;;11.20;84.90;;;;;;5027019;28;20457;-64
2024/03/20 08:49:19;;;;;;;15.23;7.10;;;11.30;84.00;;;;;;5029282;28;20041;-65
2024/03/20 08:51:45;;;;;;;14.65;7.15;;;11.60;84.20;;;;;;5032292;28;20104;-64
2024/03/20 08:54:12;;;;;;;14.63;6.60;;;11.80;83.50;;;;;;5026889;28;20126;-64
2024/03/20 08:56:38;;;;;;;13.68;7.28;;;11.80;82.80;;;;;;5028686;28;20072;-64
2024/03/20 08:59:03;;;;;;;12.65;6.57;;;12.00;82.70;;;;;;5034566;28;20423;-64
2024/03/20 09:01:29;;;;;;;11.77;6.25;;;12.10;82.20;;;;;;5030566;28;20442;-64
2024/03/20 09:03:54;;;;;;;13.57;6.80;;;12.10;81.80;;;;;;5037311;28;20103;-66
2024/03/20 09:06:20;;;;;;;13.02;8.00;;;12.10;82.10;;;;;;5027344;28;20038;-64
2024/03/20 09:08:45;;;;;;;12.95;6.88;;;12.10;82.00;;;;;;5029868;28;20523;-65
2024/03/20 09:11:11;;;;;;;16.08;7.72;;;12.10;82.10;;;;;;5002933;28;20160;-67
2024/03/20 09:13:38;;;;;;;15.98;7.40;;;12.30;82.90;;;;;;5038429;28;20121;-64
2024/03/20 09:16:04;;;;;;;13.05;6.55;;;12.30;81.90;;;;;;5030771;28;20086;-64
2024/03/20 09:18:30;;;;;;;12.20;6.65;;;12.50;82.00;;;;;;5029604;28;20120;-64
2024/03/20 09:20:56;;;;;;;12.73;7.30;;;12.50;81.80;;;;;;5030875;28;20334;-65
2024/03/20 09:23:23;;;;;;;15.27;7.50;;;12.50;82.30;;;;;;5045654;28;20037;-65
2024/03/20 09:25:49;;;;;;;14.10;8.00;;;12.50;81.50;;;;;;5032569;28;20429;-64
2024/03/20 09:28:15;;;;;;;13.80;8.18;;;12.40;82.50;;;;;;5035388;28;20467;-64
2024/03/20 09:30:40;;;;;;;14.27;7.88;;;12.40;82.90;;;;;;5041534;28;20084;-64
2024/03/20 09:33:05;;;;;;;15.63;8.38;;;12.30;83.00;;;;;;5038772;28;20073;-64
2024/03/20 09:35:32;;;;;;;15.77;7.93;;;12.40;83.40;;;;;;5036853;28;20161;-65
2024/03/20 09:37:57;;;;;;;13.88;7.57;;;12.30;83.20;;;;;;5038766;28;20366;-64
2024/03/20 09:40:24;;;;;;;16.00;7.70;;;12.50;82.60;;;;;;5036056;28;20433;-65
2024/03/20 09:42:53;;;;;;;15.73;7.95;;;12.80;82.80;;;;;;5029001;28;20438;-64
2024/03/20 09:45:20;;;;;;;13.40;7.15;;;12.90;82.00;;;;;;5041615;28;20575;-66
2024/03/20 09:47:50;;;;;;;13.88;7.82;;;13.10;81.40;;;;;;5032802;28;20063;-65
2024/03/20 09:50:18;;;;;;;16.33;8.50;;;13.50;80.30;;;;;;5039013;28;20532;-64
2024/03/20 09:52:47;;;;;;;15.63;8.43;;;13.40;79.10;;;;;;5032348;28;20121;-64
2024/03/20 09:55:15;;;;;;;16.27;8.68;;;13.50;79.50;;;;;;5029153;28;20093;-65
2024/03/20 09:57:45;;;;;;;14.60;8.38;;;13.60;79.40;;;;;;5038739;28;20021;-64
2024/03/20 10:00:16;;;;;;;13.50;7.80;;;13.70;79.70;;;;;;5035724;28;20146;-65
2024/03/20 10:02:55;;;;;;;14.63;8.80;;;13.70;79.30;;;;;;5040647;28;20052;-65
2024/03/20 10:05:20;;;;;;;15.63;8.30;;;14.00;79.20;;;;;;5042520;28;20045;-64
2024/03/20 10:07:51;;;;;;;13.63;8.20;;;14.00;78.80;;;;;;5038294;28;20339;-64
2024/03/20 10:10:17;;;;;;;14.02;8.70;;;14.10;77.80;;;;;;5033757;28;20146;-64
2024/03/20 10:12:46;;;;;;;15.27;8.35;;;14.10;78.10;;;;;;5032698;28;20117;-65
2024/03/20 10:15:12;;;;;;;17.70;7.88;;;14.50;77.30;;;;;;5034650;28;20045;-65
2024/03/20 10:17:41;;;;;;;14.05;8.00;;;14.50;76.70;;;;;;5033153;28;20064;-65
2024/03/20 10:20:18;;;;;;;12.85;7.22;;;14.50;76.10;;;;;;5029728;28;20048;-64
2024/03/20 10:22:45;;;;;;;12.95;7.55;;;14.50;75.30;;;;;;5036431;28;20124;-65
2024/03/20 10:25:13;;;;;;;13.07;6.47;;;14.80;75.60;;;;;;5024831;28;20034;-65
2024/03/20 10:27:40;;;;;;;13.07;6.82;;;14.50;75.70;;;;;;5030563;28;20093;-64
2024/03/20 10:30:19;;;;;;;12.43;6.90;;;14.80;75.60;;;;;;5026837;28;20037;-65
2024/03/20 10:32:49;;;;;;;12.23;6.75;;;15.00;75.30;;;;;;5033358;28;20061;-65
2024/03/20 10:35:16;;;;;;;13.05;6.72;;;15.30;75.40;;;;;;5033174;28;20090;-64
2024/03/20 10:37:46;;;;;;;10.68;6.32;;;15.40;74.30;;;;;;5035980;28;20036;-65
2024/03/20 10:40:19;;;;;;;11.93;6.07;;;15.30;74.40;;;;;;5033408;28;20143;-65
2024/03/20 10:42:45;;;;;;;13.57;6.70;;;15.40;74.40;;;;;;5029745;28;20162;-65
2024/03/20 10:45:12;;;;;;;13.55;6.20;;;15.60;73.70;;;;;;5030179;28;20030;-65
2024/03/20 10:47:42;;;;;;;11.70;6.68;;;15.70;72.30;;;;;;5029416;28;20372;-64
2024/03/20 10:50:18;;;;;;;12.82;5.72;;;15.80;72.60;;;;;;5035081;28;20037;-64
2024/03/20 10:52:46;;;;;;;13.55;6.63;;;16.10;73.20;;;;;;5034435;28;20465;-65
2024/03/20 10:55:14;;;;;;;10.50;5.78;;;16.20;70.70;;;;;;5032732;28;20349;-66
2024/03/20 10:57:40;;;;;;;16.27;6.32;;;16.00;71.40;;;;;;5033926;28;20080;-66
2024/03/20 11:00:14;;;;;;;10.85;5.63;;;15.80;71.90;;;;;;5035545;28;20437;-65
2024/03/20 11:02:39;;;;;;;12.63;6.15;;;15.60;72.90;;;;;;5032918;28;20377;-65
2024/03/20 11:05:33;;;;;;;10.60;5.47;;;15.60;73.50;;;;;;5038393;28;20041;-64
2024/03/20 11:08:00;;;;;;;11.77;5.65;;;16.00;71.10;;;;;;5035013;28;20041;-66
2024/03/20 11:10:28;;;;;;;11.73;6.32;;;16.30;70.70;;;;;;5032884;28;20108;-64
2024/03/20 11:12:55;;;;;;;11.55;5.68;;;16.60;70.00;;;;;;5034342;28;20057;-65
2024/03/20 11:15:26;;;;;;;9.57;5.18;;;16.60;70.30;;;;;;5029996;28;20030;-66
2024/03/20 11:17:52;;;;;;;;;;;16.70;69.20;;;;;;5038420;28;20323;-66
2024/03/20 11:20:33;;;;;;;12.05;5.50;;;17.00;69.00;;;;;;5035912;28;19963;-65
2024/03/20 11:23:05;;;;;;;9.65;5.22;;;17.10;68.00;;;;;;5035372;28;20059;-65
2024/03/20 11:25:34;;;;;;;11.25;5.30;;;17.00;69.10;;;;;;5025993;28;20045;-65
2024/03/20 11:28:00;;;;;;;8.20;4.50;;;17.20;68.60;;;;;;5037777;28;20362;-65
2024/03/20 11:30:26;;;;;;;9.45;4.90;;;17.00;68.00;;;;;;5030205;28;20056;-65
2024/03/20 11:32:52;;;;;;;10.55;5.03;;;16.70;67.90;;;;;;5029350;28;20060;-65
2024/03/20 11:35:18;;;;;;;9.65;5.05;;;16.40;68.80;;;;;;5026493;28;20045;-65
2024/03/20 11:37:44;;;;;;;10.40;4.90;;;16.30;69.20;;;;;;5027958;28;20506;-65
2024/03/20 11:40:13;;;;;;;8.27;4.57;;;16.40;70.60;;;;;;5028806;28;20131;-65
2024/03/20 11:42:39;;;;;;;8.52;4.20;;;16.60;69.10;;;;;;5034968;28;20419;-64
2024/03/20 11:45:08;;;;;;;8.40;4.60;;;16.90;68.60;;;;;;5037811;28;20099;-65
2024/03/20 11:47:34;;;;;;;8.63;4.45;;;17.00;67.30;;;;;;5035762;28;20036;-65
2024/03/20 11:49:59;;;;;;;7.57;4.07;;;17.10;66.20;;;;;;5031139;28;20504;-65
2024/03/20 11:52:25;;;;;;;8.68;3.70;;;17.40;66.70;;;;;;5033030;28;20069;-64
2024/03/20 11:54:52;;;;;;;8.98;3.50;;;17.20;66.60;;;;;;5033434;28;20398;-65
2024/03/20 11:57:19;;;;;;;7.80;3.17;;;17.30;66.10;;;;;;5028522;28;20057;-65
2024/03/20 11:59:51;;;;;;;7.18;3.17;;;17.40;65.50;;;;;;5045367;28;20452;-65
2024/03/20 12:02:18;;;;;;;7.28;2.35;;;17.70;64.80;;;;;;5034764;28;20033;-65
2024/03/20 12:04:43;;;;;;;5.72;2.85;;;18.00;65.00;;;;;;5031430;28;20179;-65
2024/03/20 12:07:23;;;;;;;5.47;2.75;;;18.00;64.40;;;;;;5031868;28;20042;-65
2024/03/20 12:09:49;;;;;;;7.30;2.85;;;17.30;64.50;;;;;;5023128;28;20130;-65
2024/03/20 12:12:15;;;;;;;6.78;3.17;;;17.00;66.30;;;;;;5027572;28;20045;-64
2024/03/20 12:14:40;;;;;;;6.68;3.15;;;16.80;66.20;;;;;;5035269;28;20632;-74
2024/03/20 12:17:08;;;;;;;5.80;2.80;;;16.90;65.90;;;;;;5038271;28;20462;-65
2024/03/20 12:19:35;;;;;;;5.97;3.67;;;17.00;66.70;;;;;;5031298;28;20291;-65
2024/03/20 12:22:01;;;;;;;6.70;3.20;;;17.10;67.30;;;;;;5030606;28;20124;-65
2024/03/20 12:24:27;;;;;;;6.85;3.67;;;17.50;66.20;;;;;;5028152;28;20124;-65
2024/03/20 12:26:52;;;;;;;7.20;3.65;;;17.50;66.00;;;;;;5033660;28;20184;-65
2024/03/20 12:29:18;;;;;;;7.80;3.67;;;17.50;64.60;;;;;;5035721;28;20034;-65
2024/03/20 12:31:43;;;;;;;7.15;3.65;;;17.50;64.50;;;;;;5026956;28;20026;-65
2024/03/20 12:34:08;;;;;;;8.95;4.13;;;17.00;65.60;;;;;;5030689;28;20045;-66
2024/03/20 12:36:34;;;;;;;7.57;3.72;;;17.00;67.00;;;;;;5033469;28;20124;-65
2024/03/20 12:38:59;;;;;;;11.10;4.07;;;17.20;66.80;;;;;;5033925;28;20057;-65
2024/03/20 12:41:25;;;;;;;7.40;3.92;;;17.30;65.90;;;;;;5031581;28;20029;-65